Kezdőlap
METAR-TAF:

METAR-TAF

Repülőterek :

Utsunomiya, Japán

földrajzi szélesség: 36-31N, földrajzi hosszúság: 139-52E, magasság: 102 m

Jelenlegi meteorológiai megfigyelések

A jelentés 11 órával és 58 perccel ezelõtt készült, 07:45 UTC
Délnyugati szél 4 kt, dél-délkeleti és nyugat-északnyugati között változik
Hőmérséklet 22°C
Páratartalom 65%
Légköri nyomás 1010 hPa
Látótávolság 10 km, vagy több
Szakadozott felhőzet 2500 lábon

METAR: RJTU 200745Z 22004KT 150V300 9999 BKN025 22/15 Q1010 RMK 5CU025 A2985

Idő: 04:43 (19:43 UTC)


TAF: hiányzik

Meteorológiai megfigyelések és előrejelzések több, mint 4000 repülőtéren (METAR és TAF jelentéseket).

A térképen piros és sárga pontok jelzik az elérhető meteorológiai állomásokat.

Mozgassa az egeret a pont fölött, hogy megjelenjen az állomás neve.

Azután kattintson az időjárási megfigyelések és előrejelzések megtekintéséhez.

A térkép megváltoztatása: kattintson a fekete keresztel jelölt zöld gombra ráközelítéshez, a vonallal jelölt zöld gombra távolításhoz, vagy a zöld nyilakra a szomszédos térképek eléréséhez.


METAR-TAF: